createdAt,value
2022-11-10T00:00:16.699Z,4.62
2022-11-10T00:03:06.594Z,4.43
2022-11-10T00:05:53.451Z,4.83
2022-11-10T00:08:40.489Z,4.52
2022-11-10T00:11:27.241Z,4.25
2022-11-10T00:14:31.243Z,4.39
2022-11-10T00:17:18.499Z,4.42
2022-11-10T00:20:07.939Z,4.06
2022-11-10T00:22:56.096Z,3.95
2022-11-10T00:25:43.369Z,4.35
2022-11-10T00:28:31.970Z,4.38
2022-11-10T00:31:18.977Z,4.11
2022-11-10T00:34:05.811Z,3.96
2022-11-10T00:36:54.225Z,4.31
2022-11-10T00:39:41.078Z,4.36
2022-11-10T00:42:27.880Z,4.50
2022-11-10T00:45:14.783Z,4.66
2022-11-10T00:48:01.675Z,4.62
2022-11-10T00:50:48.634Z,4.78
2022-11-10T00:53:37.257Z,4.88
2022-11-10T00:56:24.513Z,4.58
2022-11-10T00:59:11.188Z,5.00
2022-11-10T01:01:57.924Z,4.74
2022-11-10T01:04:44.899Z,4.79
2022-11-10T01:07:33.207Z,4.87
2022-11-10T01:10:21.160Z,5.02
2022-11-10T01:13:08.263Z,4.98
2022-11-10T01:15:55.843Z,4.83
2022-11-10T01:18:43.572Z,4.77
2022-11-10T01:21:31.776Z,4.77
2022-11-10T01:24:21.125Z,4.96
2022-11-10T01:27:09.889Z,5.51
2022-11-10T01:29:57.452Z,5.13
2022-11-10T01:32:44.791Z,5.23
2022-11-10T01:35:32.323Z,4.82
2022-11-10T01:38:19.455Z,5.01
2022-11-10T01:41:08.563Z,4.90
2022-11-10T01:44:15.749Z,5.01
2022-11-10T01:47:03.063Z,4.85
2022-11-10T01:49:51.163Z,4.89
2022-11-10T01:52:38.866Z,4.88
2022-11-10T01:55:26.479Z,5.07
2022-11-10T01:58:16.082Z,4.83
2022-11-10T02:01:04.786Z,5.04
2022-11-10T02:03:54.122Z,5.20
2022-11-10T02:06:44.341Z,5.31
2022-11-10T02:09:31.973Z,5.28
2022-11-10T02:12:37.075Z,5.10
2022-11-10T02:15:24.656Z,5.51
2022-11-10T02:18:14.150Z,5.40
2022-11-10T02:21:05.273Z,5.84
2022-11-10T02:23:53.360Z,5.67
2022-11-10T02:26:43.788Z,5.45
2022-11-10T02:29:30.851Z,5.30
2022-11-10T02:32:17.832Z,5.65
2022-11-10T02:35:05.035Z,5.35
2022-11-10T02:37:53.661Z,5.74
2022-11-10T02:40:41.168Z,5.76
2022-11-10T02:43:28.503Z,5.89
2022-11-10T02:46:15.929Z,5.81
2022-11-10T02:49:03.849Z,5.67
2022-11-10T02:51:51.017Z,5.78
2022-11-10T02:54:39.575Z,5.96
2022-11-10T02:57:26.986Z,6.27
2022-11-10T03:00:14.686Z,5.85
2022-11-10T03:03:02.714Z,6.59
2022-11-10T03:05:50.337Z,6.72
2022-11-10T03:08:38.989Z,6.25
2022-11-10T03:11:31.962Z,6.60
2022-11-10T03:14:19.295Z,6.51
2022-11-10T03:17:06.645Z,6.55
2022-11-10T03:19:53.850Z,6.72
2022-11-10T03:22:41.553Z,6.34
2022-11-10T03:25:28.664Z,6.23
2022-11-10T03:28:17.249Z,6.39
2022-11-10T03:31:04.637Z,6.57
2022-11-10T03:33:51.633Z,6.43
2022-11-10T03:36:38.829Z,6.38
2022-11-10T03:39:26.128Z,6.55
2022-11-10T03:42:13.548Z,6.65
2022-11-10T03:45:02.112Z,6.49
2022-11-10T03:47:50.495Z,6.41
2022-11-10T03:50:37.621Z,6.53
2022-11-10T03:53:25.227Z,6.48
2022-11-10T03:56:12.904Z,6.51
2022-11-10T03:59:00.709Z,6.25
2022-11-10T04:01:50.304Z,6.62
2022-11-10T04:04:55.090Z,6.62
2022-11-10T04:07:59.711Z,6.47
2022-11-10T04:10:47.508Z,6.70
2022-11-10T04:13:52.380Z,6.39
2022-11-10T04:16:40.174Z,6.63
2022-11-10T04:19:29.582Z,6.56
2022-11-10T04:22:36.593Z,6.63
2022-11-10T04:25:23.613Z,6.70
2022-11-10T04:28:10.774Z,6.67
2022-11-10T04:30:57.822Z,6.81
2022-11-10T04:33:45.642Z,6.77
2022-11-10T04:36:35.669Z,6.77
2022-11-10T04:39:22.861Z,6.75
2022-11-10T04:42:09.915Z,6.85
2022-11-10T04:44:57.255Z,6.87
2022-11-10T04:47:44.639Z,6.86
2022-11-10T04:50:31.666Z,7.03
2022-11-10T04:53:21.001Z,7.13
2022-11-10T04:56:08.370Z,7.18
2022-11-10T04:58:55.931Z,7.16
2022-11-10T05:01:43.760Z,7.05
2022-11-10T05:04:31.119Z,7.05
2022-11-10T05:07:18.216Z,7.50
2022-11-10T05:10:07.586Z,7.27
2022-11-10T05:12:55.772Z,7.08
2022-11-10T05:15:43.069Z,7.20
2022-11-10T05:18:30.268Z,7.50
2022-11-10T05:21:17.626Z,7.22
2022-11-10T05:24:04.960Z,7.10
2022-11-10T05:26:53.742Z,7.37
2022-11-10T05:29:40.969Z,7.17
2022-11-10T05:32:28.007Z,6.85
2022-11-10T05:35:15.035Z,6.88
2022-11-10T05:38:02.770Z,7.33
2022-11-10T05:40:49.819Z,7.27
2022-11-10T05:43:38.370Z,6.93
2022-11-10T05:46:26.028Z,6.99
2022-11-10T05:49:13.489Z,7.23
2022-11-10T05:52:01.276Z,6.80
2022-11-10T05:54:48.642Z,6.90
2022-11-10T05:57:35.720Z,6.99
2022-11-10T06:00:25.928Z,6.97
2022-11-10T06:03:15.540Z,7.15
2022-11-10T06:06:02.995Z,7.12
2022-11-10T06:08:50.619Z,7.14
2022-11-10T06:11:38.068Z,7.31
2022-11-10T06:14:25.259Z,7.24
2022-11-10T06:17:13.854Z,7.34
2022-11-10T06:20:01.148Z,7.46
2022-11-10T06:23:01.060Z,7.49
2022-11-10T06:25:48.258Z,7.44
2022-11-10T06:28:35.920Z,7.32
2022-11-10T06:31:23.436Z,7.33
2022-11-10T06:34:12.606Z,7.44
2022-11-10T06:37:00.103Z,7.39
2022-11-10T06:39:47.804Z,7.17
2022-11-10T06:42:35.228Z,7.35
2022-11-10T06:45:22.671Z,7.38
2022-11-10T06:48:13.894Z,7.84
2022-11-10T06:51:03.292Z,7.68
2022-11-10T06:53:50.410Z,7.82
2022-11-10T06:56:38.081Z,8.12
2022-11-10T06:59:25.281Z,7.64
2022-11-10T07:02:15.450Z,8.01
2022-11-10T07:05:03.068Z,7.71
2022-11-10T07:07:51.604Z,7.92
2022-11-10T07:10:39.010Z,7.41
2022-11-10T07:13:26.327Z,8.27
2022-11-10T07:16:14.016Z,8.57
2022-11-10T07:19:01.510Z,8.86
2022-11-10T07:21:49.180Z,7.81
2022-11-10T07:24:38.238Z,8.22
2022-11-10T07:27:25.509Z,7.83
2022-11-10T07:30:14.024Z,7.96
2022-11-10T07:33:02.541Z,8.15
2022-11-10T07:35:54.929Z,8.44
2022-11-10T07:38:42.281Z,8.36
2022-11-10T07:41:30.624Z,8.57
2022-11-10T07:44:17.947Z,8.56
2022-11-10T07:47:04.993Z,8.48
2022-11-10T07:49:52.416Z,8.52
2022-11-10T07:52:39.875Z,8.35
2022-11-10T07:55:27.199Z,8.68
2022-11-10T07:58:17.083Z,8.50
2022-11-10T08:01:04.203Z,8.51
2022-11-10T08:03:51.755Z,8.42
2022-11-10T08:06:39.035Z,8.30
2022-11-10T08:09:26.448Z,8.57
2022-11-10T08:12:13.514Z,8.61
2022-11-10T08:15:02.104Z,8.55
2022-11-10T08:17:49.450Z,8.48
2022-11-10T08:20:36.945Z,8.74
2022-11-10T08:23:24.780Z,8.45
2022-11-10T08:26:12.170Z,8.71
2022-11-10T08:28:59.795Z,8.80
2022-11-10T08:31:48.345Z,8.90
2022-11-10T08:34:35.523Z,8.83
2022-11-10T08:37:23.034Z,8.88
2022-11-10T08:40:11.425Z,9.02
2022-11-10T08:43:03.268Z,9.11
2022-11-10T08:45:51.042Z,8.96
2022-11-10T08:48:39.973Z,8.75
2022-11-10T08:51:27.140Z,8.97
2022-11-10T08:54:14.898Z,8.98
2022-11-10T08:57:02.173Z,8.99
2022-11-10T08:59:49.649Z,8.93
2022-11-10T09:02:37.077Z,8.89
2022-11-10T09:05:26.370Z,9.03
2022-11-10T09:08:13.610Z,9.25
2022-11-10T09:11:03.615Z,8.78
2022-11-10T09:13:51.210Z,8.64
2022-11-10T09:16:38.946Z,8.96
2022-11-10T09:19:26.616Z,8.93
2022-11-10T09:22:15.187Z,8.97
2022-11-10T09:25:02.770Z,8.86
2022-11-10T09:27:50.435Z,8.91
2022-11-10T09:30:37.747Z,9.36
2022-11-10T09:33:25.679Z,9.43
2022-11-10T09:36:13.572Z,9.41
2022-11-10T09:39:02.434Z,9.49
2022-11-10T09:41:49.982Z,9.51
2022-11-10T09:44:40.888Z,9.53
2022-11-10T09:47:56.365Z,9.38
2022-11-10T09:50:45.996Z,9.18
2022-11-10T09:53:38.163Z,9.59
2022-11-10T09:56:33.333Z,9.94
2022-11-10T09:59:23.568Z,9.67
2022-11-10T10:02:20.355Z,9.69
2022-11-10T10:05:33.974Z,9.88
2022-11-10T10:08:27.416Z,9.95
2022-11-10T10:11:34.667Z,10.15
2022-11-10T10:14:32.580Z,9.81
2022-11-10T10:17:26.874Z,10.03
2022-11-10T10:20:20.261Z,10.17
2022-11-10T10:23:17.039Z,9.82
2022-11-10T10:26:04.444Z,10.23
2022-11-10T10:28:53.311Z,10.16
2022-11-10T10:31:42.591Z,10.42
2022-11-10T10:34:31.787Z,10.47
2022-11-10T10:37:25.028Z,10.28
2022-11-10T10:40:16.121Z,10.19
2022-11-10T10:43:03.811Z,10.32
2022-11-10T10:46:07.909Z,10.19
2022-11-10T10:52:24.887Z,10.27
2022-11-10T10:55:14.150Z,10.12
2022-11-10T10:58:03.072Z,10.14
2022-11-10T11:00:52.610Z,10.17
2022-11-10T11:03:44.171Z,10.03
2022-11-10T11:06:32.149Z,10.25
2022-11-10T11:09:21.226Z,10.43
2022-11-10T11:12:12.041Z,10.60
2022-11-10T11:15:26.615Z,10.44
2022-11-10T11:18:16.478Z,10.32
2022-11-10T11:21:10.988Z,10.06
2022-11-10T11:24:13.013Z,10.37
2022-11-10T11:27:03.175Z,10.12
2022-11-10T11:30:05.712Z,10.11
2022-11-10T11:33:12.269Z,10.81
2022-11-10T11:36:04.288Z,11.15
2022-11-10T11:39:00.110Z,10.86
2022-11-10T11:41:51.725Z,11.17
2022-11-10T11:45:00.614Z,10.76
2022-11-10T11:48:09.581Z,10.29
2022-11-10T11:50:59.329Z,10.15
2022-11-10T11:54:04.091Z,9.82
2022-11-10T11:56:52.294Z,10.18
2022-11-10T11:59:50.806Z,11.10
2022-11-10T12:03:08.283Z,11.40
2022-11-10T12:06:05.447Z,11.60
2022-11-10T12:08:58.669Z,11.55
2022-11-10T12:11:57.481Z,11.56
2022-11-10T12:14:52.761Z,11.69
2022-11-10T12:17:45.667Z,11.07
2022-11-10T12:20:40.996Z,11.18
2022-11-10T12:23:34.335Z,10.60
2022-11-10T12:26:31.911Z,11.04
2022-11-10T12:29:25.669Z,11.54
2022-11-10T12:32:17.656Z,10.68
2022-11-10T12:35:09.325Z,10.57
2022-11-10T12:38:00.308Z,10.38
2022-11-10T12:40:50.185Z,9.92
2022-11-10T12:43:41.812Z,9.96
2022-11-10T12:46:30.758Z,9.69
2022-11-10T12:49:19.858Z,10.01
2022-11-10T12:52:11.808Z,10.31
2022-11-10T12:54:59.178Z,10.06
2022-11-10T12:57:46.933Z,9.74
2022-11-10T13:00:38.849Z,10.03
2022-11-10T13:03:30.933Z,10.14
2022-11-10T13:06:27.672Z,9.81
2022-11-10T13:09:26.278Z,10.10
2022-11-10T13:12:21.516Z,9.86
2022-11-10T13:15:44.604Z,9.97
2022-11-10T13:18:57.239Z,10.24
2022-11-10T13:22:12.392Z,9.89
2022-11-10T13:25:36.261Z,10.19
2022-11-10T13:29:01.677Z,9.53
2022-11-10T13:31:54.899Z,9.56
2022-11-10T13:34:44.799Z,10.10
2022-11-10T13:37:50.950Z,10.17
2022-11-10T13:40:41.085Z,10.32
2022-11-10T13:43:29.018Z,10.27
2022-11-10T13:46:16.672Z,10.45
2022-11-10T13:49:26.801Z,9.93
2022-11-10T13:52:18.717Z,9.98
2022-11-10T13:55:16.823Z,9.76
2022-11-10T13:58:05.865Z,9.55
2022-11-10T14:01:23.004Z,10.05
2022-11-10T14:04:10.181Z,9.52
2022-11-10T14:06:58.599Z,9.42
2022-11-10T14:09:49.556Z,9.55
2022-11-10T14:12:42.487Z,9.19
2022-11-10T14:15:38.830Z,9.37
2022-11-10T14:18:29.307Z,9.48
2022-11-10T14:21:23.054Z,9.31
2022-11-10T14:24:17.025Z,9.29
2022-11-10T14:27:09.890Z,9.29
2022-11-10T14:30:21.911Z,9.39
2022-11-10T14:33:12.932Z,9.17
2022-11-10T14:36:02.126Z,9.07
2022-11-10T14:38:49.687Z,8.97
2022-11-10T14:41:37.537Z,8.93
2022-11-10T14:44:27.619Z,8.74
2022-11-10T14:47:16.935Z,8.88
2022-11-10T14:50:09.373Z,8.96
2022-11-10T14:52:59.651Z,8.87
2022-11-10T14:55:51.873Z,8.73
2022-11-10T14:58:43.595Z,8.80
2022-11-10T15:01:36.017Z,8.78
2022-11-10T15:04:28.803Z,8.64
2022-11-10T15:07:16.382Z,8.65
2022-11-10T15:10:06.880Z,8.87
2022-11-10T15:13:05.658Z,8.76
2022-11-10T15:15:53.712Z,8.65
2022-11-10T15:18:42.448Z,8.59
2022-11-10T15:21:34.129Z,8.68
2022-11-10T15:24:28.458Z,8.54
2022-11-10T15:27:24.082Z,8.61
2022-11-10T15:30:23.079Z,8.66
2022-11-10T15:33:11.642Z,8.59
2022-11-10T15:36:16.222Z,8.50
2022-11-10T15:39:08.478Z,8.67
2022-11-10T15:41:59.499Z,8.70
2022-11-10T15:44:47.798Z,8.41
2022-11-10T15:47:35.370Z,8.09
2022-11-10T15:50:22.756Z,8.21
2022-11-10T15:53:15.204Z,8.32
2022-11-10T15:56:02.832Z,8.44
2022-11-10T15:58:51.879Z,8.24
2022-11-10T16:01:39.277Z,8.22
2022-11-10T16:04:28.308Z,8.04
2022-11-10T16:07:15.563Z,8.11
2022-11-10T16:10:04.566Z,8.81
2022-11-10T16:12:52.243Z,8.71
2022-11-10T16:15:40.083Z,8.55
2022-11-10T16:18:28.775Z,8.63
2022-11-10T16:21:16.889Z,8.87
2022-11-10T16:24:04.534Z,8.87
2022-11-10T16:26:53.321Z,8.90
2022-11-10T16:29:40.880Z,8.72
2022-11-10T16:32:28.281Z,8.67
2022-11-10T16:35:15.759Z,8.62
2022-11-10T16:38:18.428Z,8.52
2022-11-10T16:41:11.329Z,8.31
2022-11-10T16:43:59.930Z,8.38
2022-11-10T16:46:51.702Z,8.54
2022-11-10T16:49:45.546Z,8.50
2022-11-10T16:52:32.682Z,8.14
2022-11-10T16:55:20.078Z,8.36
2022-11-10T16:58:07.505Z,8.07
2022-11-10T17:00:58.882Z,8.12
2022-11-10T17:03:47.731Z,7.90
2022-11-10T17:06:35.732Z,8.20
2022-11-10T17:09:26.160Z,8.15
2022-11-10T17:12:14.719Z,8.24
2022-11-10T17:15:02.197Z,8.05
2022-11-10T17:17:53.574Z,8.02
2022-11-10T17:20:43.026Z,7.84
2022-11-10T17:23:30.663Z,7.87
2022-11-10T17:26:19.262Z,7.88
2022-11-10T17:29:06.505Z,7.64
2022-11-10T17:31:54.455Z,7.90
2022-11-10T17:34:43.047Z,7.92
2022-11-10T17:37:30.259Z,7.43
2022-11-10T17:40:20.592Z,7.65
2022-11-10T17:43:09.571Z,7.47
2022-11-10T17:45:56.903Z,7.31
2022-11-10T17:48:44.685Z,7.52
2022-11-10T17:51:33.814Z,7.42
2022-11-10T17:54:21.092Z,7.59
2022-11-10T17:57:10.066Z,7.45
2022-11-10T17:59:57.420Z,7.40
2022-11-10T18:02:47.243Z,7.26
2022-11-10T18:05:37.351Z,7.27
2022-11-10T18:08:26.255Z,7.35
2022-11-10T18:11:15.072Z,7.53
2022-11-10T18:14:03.188Z,7.61
2022-11-10T18:16:50.404Z,7.32
2022-11-10T18:19:37.907Z,7.36
2022-11-10T18:22:25.130Z,7.04
2022-11-10T18:25:13.945Z,7.10
2022-11-10T18:28:01.179Z,6.76
2022-11-10T18:30:48.632Z,6.83
2022-11-10T18:33:36.918Z,6.98
2022-11-10T18:36:24.262Z,6.94
2022-11-10T18:39:11.882Z,6.57
2022-11-10T18:42:00.676Z,7.02
2022-11-10T18:44:48.049Z,7.10
2022-11-10T18:47:35.400Z,6.64
2022-11-10T18:50:22.941Z,6.90
2022-11-10T18:53:10.307Z,6.79
2022-11-10T18:55:57.923Z,6.82
2022-11-10T18:58:53.745Z,6.85
2022-11-10T19:01:44.497Z,6.96
2022-11-10T19:04:32.031Z,7.05
2022-11-10T19:07:19.500Z,6.90
2022-11-10T19:10:07.878Z,7.11
2022-11-10T19:12:55.303Z,7.61
2022-11-10T19:15:43.950Z,7.83
2022-11-10T19:18:31.153Z,7.66
2022-11-10T19:21:20.124Z,7.84
2022-11-10T19:24:08.010Z,7.62
2022-11-10T19:26:55.148Z,7.21
2022-11-10T19:29:42.277Z,7.45
2022-11-10T19:32:32.308Z,7.40
2022-11-10T19:35:19.759Z,6.78
2022-11-10T19:38:06.441Z,6.64
2022-11-10T19:40:53.599Z,6.47
2022-11-10T19:43:44.910Z,6.34
2022-11-10T19:46:37.064Z,6.20
2022-11-10T19:49:25.920Z,6.23
2022-11-10T19:52:13.202Z,6.20
2022-11-10T19:55:00.208Z,6.40
2022-11-10T19:57:47.491Z,6.25
2022-11-10T20:00:34.908Z,6.11
2022-11-10T20:03:22.694Z,6.20
2022-11-10T20:06:13.202Z,6.11
2022-11-10T20:09:00.346Z,6.25
2022-11-10T20:11:47.989Z,6.16
2022-11-10T20:14:35.705Z,6.05
2022-11-10T20:17:23.128Z,5.98
2022-11-10T20:20:10.935Z,6.35
2022-11-10T20:23:03.298Z,6.62
2022-11-10T20:25:50.749Z,6.45
2022-11-10T20:28:39.568Z,6.25
2022-11-10T20:31:27.367Z,6.13
2022-11-10T20:34:15.359Z,5.91
2022-11-10T20:37:02.836Z,5.87
2022-11-10T20:39:51.593Z,6.01
2022-11-10T20:42:42.491Z,5.72
2022-11-10T20:45:30.288Z,5.90
2022-11-10T20:48:17.715Z,5.67
2022-11-10T20:51:10.205Z,6.94
2022-11-10T20:53:59.516Z,6.97
2022-11-10T20:56:48.019Z,7.04
2022-11-10T20:59:35.188Z,6.83
2022-11-10T21:02:22.870Z,7.05
2022-11-10T21:05:10.736Z,5.96
2022-11-10T21:07:58.138Z,7.00
2022-11-10T21:10:51.649Z,6.86
2022-11-10T21:13:40.475Z,6.27
2022-11-10T21:16:28.460Z,6.41
2022-11-10T21:19:16.172Z,6.93
2022-11-10T21:22:03.450Z,5.84
2022-11-10T21:24:50.870Z,6.34
2022-11-10T21:27:38.381Z,6.57
2022-11-10T21:30:27.583Z,6.66
2022-11-10T21:33:15.020Z,6.28
2022-11-10T21:36:06.820Z,6.22
2022-11-10T21:38:54.402Z,6.46
2022-11-10T21:41:41.942Z,6.38
2022-11-10T21:44:29.383Z,6.66
2022-11-10T21:47:17.923Z,6.36
2022-11-10T21:50:05.567Z,6.21
2022-11-10T21:52:52.830Z,6.44
2022-11-10T21:55:40.126Z,6.57
2022-11-10T21:58:28.346Z,6.59
2022-11-10T22:01:19.093Z,6.47
2022-11-10T22:04:07.438Z,6.74
2022-11-10T22:07:11.756Z,6.19
2022-11-10T22:10:16.621Z,5.56
2022-11-10T22:13:21.148Z,6.31
2022-11-10T22:16:38.354Z,6.93
2022-11-10T22:19:26.597Z,6.74
2022-11-10T22:22:15.371Z,6.71
2022-11-10T22:25:02.796Z,6.60
2022-11-10T22:27:49.765Z,6.45
2022-11-10T22:30:37.629Z,6.03
2022-11-10T22:33:34.784Z,5.25
2022-11-10T22:36:23.596Z,5.26
2022-11-10T22:39:10.893Z,5.27
2022-11-10T22:42:15.438Z,5.03
2022-11-10T22:45:02.459Z,5.16
2022-11-10T22:48:07.229Z,5.21
2022-11-10T22:50:57.311Z,5.37
2022-11-10T22:53:45.819Z,5.46
2022-11-10T22:56:34.360Z,5.43
2022-11-10T22:59:21.516Z,5.34
2022-11-10T23:02:08.229Z,5.32
2022-11-10T23:04:55.381Z,5.33
2022-11-10T23:07:42.495Z,5.25
2022-11-10T23:10:30.741Z,5.11
2022-11-10T23:13:17.950Z,5.14
2022-11-10T23:16:06.474Z,5.07
2022-11-10T23:18:54.864Z,5.26
2022-11-10T23:21:42.077Z,5.05
2022-11-10T23:24:28.923Z,5.15
2022-11-10T23:27:17.262Z,5.22
2022-11-10T23:30:04.603Z,4.96
2022-11-10T23:32:51.505Z,4.90
2022-11-10T23:35:38.857Z,5.10
2022-11-10T23:38:26.151Z,5.07
2022-11-10T23:41:15.055Z,5.18
2022-11-10T23:44:03.404Z,5.23
2022-11-10T23:46:50.480Z,5.53
2022-11-10T23:49:37.214Z,5.60
2022-11-10T23:52:23.988Z,5.72
2022-11-10T23:55:11.084Z,5.52
2022-11-10T23:57:57.791Z,5.70
